Aeroporto :
LOGIN :

Iscrizione | Disclaimer

   EN    FR    IT 

 










Sommario :    VFR   VFR Marginale   IFR   IFR Intensivo   IFR Molto Intensivo
Visibilità : 
Base nubi : 
>= 8 km
>= 3000ft
5 / 8 km
1000 / 3000 ft
1500m / 5 km
500 / 1000 ft
800 / 1500m
200 / 500 ft
< 800m
< 200 ft
Simboli :   Temporali  Nebbia  Neve Forte  Precipitazioni Forti  Vento > 20 kt
SIGMETs :   Varie  Temporali  Ghiacco  Turbolenza  Onda orograficha  Ceneri Vulcaniche






- Altitudine del aeroporto : 1300 ft
- Codice IATA : LIG


LFBL - Limoges

ULTIMO METAR :
  • 091800Z AUTO 27015G26KT 230V300 9999 BKN014 BKN019 OVC028 12/11 Q1012 BECMG 28010KT BKN015

METARs OBSOLETI :
  • 091730Z AUTO 28019G33KT 250V310 9999 FEW008/// BKN015/// BKN020/// //////CB 12/11 Q1012 TEMPO BKN005
  • 091700Z AUTO 25013G23KT 230V310 9999 BKN005/// OVC011/// //////TCU 13/13 Q1011 TEMPO BKN005 BECMG 24020G35KT
  • 091630Z AUTO 25012KT 210V270 9999 OVC004/// ///TCU 12/12 Q1010 TEMPO BKN005 BECMG 24020G35KT
  • 091600Z AUTO 22012KT 9000 -RA OVC004/// //////TCU 11/11 Q1009 BECMG 24020G35KT BKN012 BKN025
  • 091530Z AUTO 22013KT 3400 RA BR OVC003/// ///TCU 11/11 Q1009 BECMG 24020G35KT 9999 NSW BKN012 BKN025
  • 091500Z AUTO 21015KT 2800 RA BR OVC003/// //////CB 10/10 Q1009 BECMG 24020G35KT 9999 NSW BKN012 BKN025
  • 091430Z AUTO 19015KT 3400 -DZ BR OVC003 10/10 Q1008 BECMG 24020G35KT 9999 NSW BKN012 BKN025
  • 091400Z AUTO 20014KT 2700 -DZ BR OVC003 09/09 Q1009 TEMPO 18015G30KT RA
  • 091330Z AUTO 19011KT 2400 -RA BR OVC003 09/09 Q1009 TEMPO 18015G30KT RA

TAF TAF LFBL
Valido dal 09 a 18 ore il 10 a 18 ore UTC


091700Z 0918/1018 27020G35KT 9999 NSW SCT010 BKN020
BECMG 0919/0921 28010KT BKN015
TEMPO 0921/1007 BKN005 OVC014
BECMG 0923/1001 22010KT
BECMG 1007/1009 18010KT OVC010
BECMG 1010/1012 20010G20KT 3000 RADZ OVC005
ATIS : +33 5 55 48 40 37



MetMap, La meteo Aeronautica in un colpo d'occhio ! - Copyright ORBIFLY Dicembre 2007 - Disclaimer

ORBIFLY MET'MAP TEAM :

Programmazione e sviluppo : Alexandra Zaïnal
Concezione : Baudouin d'Aumeries
Supporto tecnico e logistico : Manuel Goepfert
Aiuto : Marc-Olivier Méhu
Aiuto per la traduzione : Arnaldo La Scala




FONTI E CREDITI :

   NOAA